createdAt,value
2022-11-12T00:01:11.785Z,79.90
2022-11-12T00:03:39.668Z,79.90
2022-11-12T00:06:07.668Z,80.80
2022-11-12T00:08:35.628Z,80.60
2022-11-12T00:11:04.848Z,80.80
2022-11-12T00:13:34.145Z,80.10
2022-11-12T00:16:02.019Z,80.90
2022-11-12T00:18:29.896Z,81.10
2022-11-12T00:20:58.071Z,81.50
2022-11-12T00:23:25.920Z,81.80
2022-11-12T00:26:00.387Z,81.50
2022-11-12T00:28:31.044Z,81.40
2022-11-12T00:31:08.404Z,81.70
2022-11-12T00:33:36.279Z,81.70
2022-11-12T00:36:04.265Z,81.50
2022-11-12T00:38:32.484Z,81.90
2022-11-12T00:41:00.791Z,82.30
2022-11-12T00:43:28.922Z,82.00
2022-11-12T00:45:56.799Z,81.70
2022-11-12T00:48:26.220Z,81.50
2022-11-12T00:51:01.035Z,81.40
2022-11-12T00:53:28.924Z,82.00
2022-11-12T00:56:02.100Z,82.10
2022-11-12T00:58:31.178Z,82.20
2022-11-12T01:00:59.567Z,80.40
2022-11-12T01:03:30.294Z,81.00
2022-11-12T01:06:03.590Z,81.40
2022-11-12T01:08:31.576Z,82.40
2022-11-12T01:11:06.682Z,82.10
2022-11-12T01:13:37.704Z,82.70
2022-11-12T01:16:08.374Z,82.70
2022-11-12T01:18:37.641Z,82.00
2022-11-12T01:21:07.148Z,81.60
2022-11-12T01:23:36.487Z,82.20
2022-11-12T01:26:05.621Z,82.20
2022-11-12T01:28:33.847Z,81.40
2022-11-12T01:31:11.802Z,81.70
2022-11-12T01:33:41.295Z,82.60
2022-11-12T01:36:09.818Z,83.20
2022-11-12T01:38:38.662Z,83.50
2022-11-12T01:41:07.768Z,83.40
2022-11-12T01:43:35.735Z,84.10
2022-11-12T01:46:08.495Z,84.30
2022-11-12T01:48:43.467Z,84.60
2022-11-12T01:51:14.023Z,84.70
2022-11-12T01:53:46.431Z,84.30
2022-11-12T01:56:15.848Z,84.80
2022-11-12T01:58:45.144Z,84.80
2022-11-12T02:01:13.051Z,84.50
2022-11-12T02:03:42.506Z,84.40
2022-11-12T02:06:13.789Z,83.70
2022-11-12T02:08:43.485Z,83.50
2022-11-12T02:11:15.102Z,83.60
2022-11-12T02:14:00.923Z,84.00
2022-11-12T02:16:32.571Z,84.40
2022-11-12T02:19:02.243Z,84.70
2022-11-12T02:21:31.888Z,85.40
2022-11-12T02:24:02.288Z,85.80
2022-11-12T02:26:33.799Z,85.80
2022-11-12T02:29:02.194Z,86.00
2022-11-12T02:31:30.344Z,86.00
2022-11-12T02:33:58.221Z,86.60
2022-11-12T02:36:26.293Z,86.50
2022-11-12T02:38:55.536Z,86.00
2022-11-12T02:41:23.464Z,85.90
2022-11-12T02:43:51.339Z,86.10
2022-11-12T02:46:19.317Z,86.40
2022-11-12T02:48:47.171Z,86.20
2022-11-12T02:51:15.065Z,86.80
2022-11-12T02:53:42.926Z,86.70
2022-11-12T02:56:12.227Z,86.80
2022-11-12T02:58:40.710Z,87.20
2022-11-12T03:01:09.224Z,88.00
2022-11-12T03:03:37.395Z,87.90
2022-11-12T03:06:06.070Z,87.70
2022-11-12T03:08:34.305Z,87.70
2022-11-12T03:11:08.430Z,88.40
2022-11-12T03:13:38.777Z,88.30
2022-11-12T03:16:06.870Z,88.20
2022-11-12T03:18:35.239Z,87.80
2022-11-12T03:21:03.478Z,87.90
2022-11-12T03:23:32.361Z,88.10
2022-11-12T03:26:03.327Z,88.70
2022-11-12T03:28:31.933Z,89.30
2022-11-12T03:31:02.363Z,88.80
2022-11-12T03:33:32.880Z,89.60
2022-11-12T03:36:01.204Z,89.60
2022-11-12T03:38:29.792Z,89.70
2022-11-12T03:40:58.312Z,89.60
2022-11-12T03:43:26.949Z,89.70
2022-11-12T03:45:55.309Z,89.80
2022-11-12T03:48:25.332Z,89.70
2022-11-12T03:50:53.776Z,89.90
2022-11-12T03:53:25.182Z,89.80
2022-11-12T03:55:53.385Z,89.90
2022-11-12T03:58:21.670Z,89.80
2022-11-12T04:00:50.186Z,89.80
2022-11-12T04:03:18.429Z,90.00
2022-11-12T04:06:05.366Z,89.30
2022-11-12T04:08:39.206Z,89.80
2022-11-12T04:11:09.109Z,89.80
2022-11-12T04:13:38.544Z,89.70
2022-11-12T04:16:26.396Z,89.80
2022-11-12T04:19:14.561Z,89.80
2022-11-12T04:21:54.659Z,89.80
2022-11-12T04:24:43.247Z,89.70
2022-11-12T04:27:13.961Z,89.80
2022-11-12T04:29:59.562Z,89.80
2022-11-12T04:32:27.684Z,89.80
2022-11-12T04:34:55.899Z,89.90
2022-11-12T04:37:27.160Z,89.90
2022-11-12T04:39:55.473Z,89.80
2022-11-12T04:42:40.767Z,90.10
2022-11-12T04:45:10.361Z,90.10
2022-11-12T04:47:40.641Z,89.90
2022-11-12T04:50:15.404Z,89.80
2022-11-12T04:52:44.938Z,89.80
2022-11-12T04:55:13.006Z,89.80
2022-11-12T04:57:41.050Z,89.90
2022-11-12T05:00:10.381Z,89.80
2022-11-12T05:02:38.258Z,89.80
2022-11-12T05:05:06.862Z,89.90
2022-11-12T05:07:34.933Z,89.90
2022-11-12T05:10:04.444Z,90.00
2022-11-12T05:12:32.399Z,89.90
2022-11-12T05:15:00.347Z,89.90
2022-11-12T05:17:28.416Z,89.90
2022-11-12T05:19:56.297Z,89.80
2022-11-12T05:22:42.766Z,89.80
2022-11-12T05:25:13.489Z,89.90
2022-11-12T05:27:41.446Z,90.00
2022-11-12T05:30:10.580Z,89.20
2022-11-12T05:32:38.533Z,89.80
2022-11-12T05:35:07.023Z,90.00
2022-11-12T05:37:34.872Z,90.10
2022-11-12T05:40:02.825Z,90.10
2022-11-12T05:42:32.077Z,89.80
2022-11-12T05:45:00.752Z,90.10
2022-11-12T05:47:28.669Z,90.00
2022-11-12T05:49:56.561Z,90.10
2022-11-12T05:52:24.472Z,89.90
2022-11-12T05:54:52.431Z,89.90
2022-11-12T05:57:20.280Z,89.90
2022-11-12T05:59:49.484Z,89.80
2022-11-12T06:02:17.477Z,89.80
2022-11-12T06:04:45.421Z,89.70
2022-11-12T06:07:13.642Z,89.70
2022-11-12T06:09:41.565Z,89.80
2022-11-12T06:12:09.430Z,89.80
2022-11-12T06:14:37.787Z,89.80
2022-11-12T06:17:07.072Z,89.80
2022-11-12T06:19:34.994Z,89.80
2022-11-12T06:22:02.857Z,89.80
2022-11-12T06:24:35.023Z,90.10
2022-11-12T06:27:03.561Z,90.10
2022-11-12T06:29:31.525Z,89.90
2022-11-12T06:31:59.395Z,90.00
2022-11-12T06:34:28.744Z,89.90
2022-11-12T06:36:56.633Z,89.80
2022-11-12T06:39:24.536Z,89.70
2022-11-12T06:41:52.678Z,89.80
2022-11-12T06:44:22.389Z,90.10
2022-11-12T06:46:50.478Z,90.10
2022-11-12T06:49:18.390Z,89.90
2022-11-12T06:51:47.674Z,90.00
2022-11-12T06:54:15.686Z,89.90
2022-11-12T06:56:43.575Z,89.90
2022-11-12T06:59:11.772Z,89.90
2022-11-12T07:01:39.753Z,89.90
2022-11-12T07:04:08.000Z,89.50
2022-11-12T07:06:36.134Z,89.90
2022-11-12T07:09:06.228Z,89.50
2022-11-12T07:11:34.133Z,88.50
2022-11-12T07:14:02.362Z,87.60
2022-11-12T07:16:30.254Z,86.80
2022-11-12T07:18:58.165Z,88.40
2022-11-12T07:21:26.294Z,88.70
2022-11-12T07:23:54.216Z,89.20
2022-11-12T07:26:24.796Z,88.10
2022-11-12T07:28:53.781Z,88.90
2022-11-12T07:31:22.294Z,89.80
2022-11-12T07:33:51.263Z,89.90
2022-11-12T07:36:21.695Z,89.90
2022-11-12T07:38:54.456Z,90.00
2022-11-12T07:41:25.453Z,90.00
2022-11-12T07:43:54.804Z,89.60
2022-11-12T07:46:24.399Z,89.10
2022-11-12T07:48:52.950Z,89.20
2022-11-12T07:51:22.839Z,88.90
2022-11-12T07:53:55.011Z,88.80
2022-11-12T07:56:28.421Z,88.20
2022-11-12T07:58:56.331Z,88.20
2022-11-12T08:01:27.021Z,87.90
2022-11-12T08:03:55.231Z,87.80
2022-11-12T08:06:23.737Z,87.00
2022-11-12T08:08:53.198Z,87.80
2022-11-12T08:11:21.567Z,87.20
2022-11-12T08:13:51.170Z,86.90
2022-11-12T08:16:19.302Z,87.40
2022-11-12T08:18:47.837Z,87.30
2022-11-12T08:21:17.245Z,87.10
2022-11-12T08:23:45.825Z,87.90
2022-11-12T08:26:15.945Z,87.10
2022-11-12T08:28:44.178Z,84.80
2022-11-12T08:31:15.876Z,85.30
2022-11-12T08:33:44.180Z,85.40
2022-11-12T08:36:14.111Z,86.50
2022-11-12T08:38:42.705Z,85.50
2022-11-12T08:41:12.780Z,86.40
2022-11-12T08:43:41.657Z,86.20
2022-11-12T08:46:09.771Z,86.40
2022-11-12T08:48:39.966Z,85.90
2022-11-12T08:51:08.361Z,85.20
2022-11-12T08:53:36.655Z,84.70
2022-11-12T08:56:04.996Z,83.80
2022-11-12T08:58:33.114Z,84.20
2022-11-12T09:01:06.324Z,82.50
2022-11-12T09:03:34.547Z,83.10
2022-11-12T09:06:06.610Z,83.20
2022-11-12T09:08:36.728Z,82.40
2022-11-12T09:11:05.322Z,82.50
2022-11-12T09:13:34.031Z,79.10
2022-11-12T09:16:03.551Z,77.50
2022-11-12T09:18:33.194Z,80.80
2022-11-12T09:21:03.738Z,78.30
2022-11-12T09:23:31.986Z,80.00
2022-11-12T09:25:59.890Z,80.70
2022-11-12T09:28:28.098Z,80.10
2022-11-12T09:30:57.056Z,80.20
2022-11-12T09:33:27.295Z,78.00
2022-11-12T09:35:56.025Z,77.70
2022-11-12T09:38:25.717Z,76.00
2022-11-12T09:41:10.405Z,74.50
2022-11-12T09:43:43.212Z,75.20
2022-11-12T09:46:28.671Z,75.60
2022-11-12T09:49:03.693Z,76.00
2022-11-12T09:51:35.056Z,75.00
2022-11-12T09:54:14.678Z,75.30
2022-11-12T09:56:42.642Z,72.80
2022-11-12T09:59:13.693Z,73.50
2022-11-12T10:01:55.966Z,74.10
2022-11-12T10:04:50.285Z,74.20
2022-11-12T10:07:33.234Z,71.90
2022-11-12T10:10:06.143Z,74.20
2022-11-12T10:12:46.789Z,74.20
2022-11-12T10:15:50.347Z,72.30
2022-11-12T10:18:30.006Z,74.30
2022-11-12T10:21:04.152Z,74.60
2022-11-12T10:23:39.959Z,72.90
2022-11-12T10:26:14.727Z,72.20
2022-11-12T10:28:48.015Z,69.80
2022-11-12T10:31:18.134Z,71.20
2022-11-12T10:33:46.554Z,71.20
2022-11-12T10:36:22.629Z,67.00
2022-11-12T10:38:54.844Z,68.70
2022-11-12T10:41:27.106Z,70.30
2022-11-12T10:43:57.493Z,71.00
2022-11-12T10:46:27.496Z,73.80
2022-11-12T10:48:59.352Z,71.70
2022-11-12T10:51:30.296Z,74.20
2022-11-12T10:53:58.951Z,73.20
2022-11-12T10:56:30.836Z,73.90
2022-11-12T10:59:21.239Z,72.00
2022-11-12T11:01:57.856Z,69.80
2022-11-12T11:04:31.124Z,72.30
2022-11-12T11:07:01.616Z,71.70
2022-11-12T11:09:29.642Z,69.80
2022-11-12T11:11:58.887Z,69.70
2022-11-12T11:14:31.516Z,69.60
2022-11-12T11:17:01.999Z,69.30
2022-11-12T11:19:36.263Z,70.10
2022-11-12T11:22:27.412Z,70.20
2022-11-12T11:25:07.518Z,71.10
2022-11-12T11:27:42.626Z,72.70
2022-11-12T11:30:13.195Z,71.90
2022-11-12T11:33:06.162Z,71.40
2022-11-12T11:35:47.819Z,69.30
2022-11-12T11:38:42.907Z,69.40
2022-11-12T11:41:22.643Z,67.00
2022-11-12T11:44:09.881Z,67.10
2022-11-12T11:46:53.515Z,67.40
2022-11-12T11:49:40.320Z,68.00
2022-11-12T11:52:15.764Z,66.40
2022-11-12T11:54:59.944Z,63.10
2022-11-12T11:57:30.850Z,66.40
2022-11-12T12:00:11.658Z,66.60
2022-11-12T12:02:57.055Z,66.90
2022-11-12T12:05:38.020Z,65.30
2022-11-12T12:08:09.911Z,64.90
2022-11-12T12:11:11.496Z,63.40
2022-11-12T12:13:55.680Z,64.50
2022-11-12T12:16:40.344Z,65.40
2022-11-12T12:19:18.185Z,65.00
2022-11-12T12:21:51.364Z,64.90
2022-11-12T12:24:23.514Z,65.30
2022-11-12T12:26:55.065Z,66.30
2022-11-12T12:29:29.855Z,67.40
2022-11-12T12:32:05.107Z,67.90
2022-11-12T12:34:35.612Z,67.20
2022-11-12T12:37:11.161Z,66.50
2022-11-12T12:39:48.172Z,66.30
2022-11-12T12:42:21.531Z,66.00
2022-11-12T12:45:04.720Z,64.60
2022-11-12T12:47:39.298Z,64.30
2022-11-12T12:50:12.834Z,64.30
2022-11-12T12:53:06.238Z,63.00
2022-11-12T12:55:42.438Z,64.00
2022-11-12T12:58:29.691Z,62.90
2022-11-12T13:01:03.014Z,63.10
2022-11-12T13:06:33.240Z,63.30
2022-11-12T13:09:05.411Z,62.10
2022-11-12T13:12:12.215Z,62.40
2022-11-12T13:15:08.606Z,62.50
2022-11-12T13:17:52.033Z,62.00
2022-11-12T13:20:39.352Z,61.30
2022-11-12T13:23:33.414Z,61.40
2022-11-12T13:26:58.605Z,61.30
2022-11-12T13:29:47.143Z,61.10
2022-11-12T13:32:38.614Z,60.90
2022-11-12T13:35:35.227Z,61.20
2022-11-12T13:38:12.468Z,60.70
2022-11-12T13:40:44.416Z,61.10
2022-11-12T13:43:18.102Z,62.60
2022-11-12T13:45:51.377Z,62.50
2022-11-12T13:48:24.882Z,62.50
2022-11-12T13:50:56.453Z,62.90
2022-11-12T13:53:27.144Z,62.40
2022-11-12T13:55:56.184Z,61.50
2022-11-12T13:58:30.041Z,62.20
2022-11-12T14:01:02.364Z,61.60
2022-11-12T14:03:33.806Z,61.80
2022-11-12T14:06:06.640Z,62.30
2022-11-12T14:08:56.767Z,61.20
2022-11-12T14:11:48.227Z,62.60
2022-11-12T14:14:27.400Z,63.40
2022-11-12T14:17:08.893Z,63.70
2022-11-12T14:20:11.298Z,63.90
2022-11-12T14:22:42.253Z,64.40
2022-11-12T14:25:18.609Z,64.70
2022-11-12T14:27:47.537Z,65.20
2022-11-12T14:30:18.110Z,66.40
2022-11-12T14:32:50.998Z,65.20
2022-11-12T14:35:32.173Z,65.20
2022-11-12T14:38:06.786Z,65.90
2022-11-12T14:40:37.515Z,65.80
2022-11-12T14:43:07.068Z,67.10
2022-11-12T14:45:35.625Z,67.50
2022-11-12T14:48:10.627Z,67.90
2022-11-12T14:50:41.159Z,68.20
2022-11-12T14:53:24.807Z,68.80
2022-11-12T14:55:55.277Z,69.30
2022-11-12T14:58:24.684Z,69.60
2022-11-12T15:00:54.223Z,69.60
2022-11-12T15:03:26.469Z,69.90
2022-11-12T15:06:01.125Z,70.00
2022-11-12T15:08:34.248Z,70.20
2022-11-12T15:11:22.577Z,71.60
2022-11-12T15:13:52.539Z,72.10
2022-11-12T15:16:24.195Z,73.30
2022-11-12T15:19:24.840Z,73.80
2022-11-12T15:21:54.815Z,73.40
2022-11-12T15:24:27.875Z,73.30
2022-11-12T15:26:57.049Z,73.20
2022-11-12T15:29:31.152Z,73.60
2022-11-12T15:32:01.798Z,73.80
2022-11-12T15:34:45.576Z,74.10
2022-11-12T15:37:22.937Z,75.10
2022-11-12T15:39:52.492Z,75.30
2022-11-12T15:42:27.342Z,76.50
2022-11-12T15:45:00.421Z,76.80
2022-11-12T15:47:28.836Z,76.80
2022-11-12T15:49:59.708Z,77.30
2022-11-12T15:52:27.960Z,78.10
2022-11-12T15:54:56.097Z,78.00
2022-11-12T15:57:26.552Z,78.50
2022-11-12T16:00:01.662Z,78.50
2022-11-12T16:02:34.610Z,79.60
2022-11-12T16:05:03.900Z,80.30
2022-11-12T16:07:31.818Z,80.50
2022-11-12T16:09:59.752Z,80.40
2022-11-12T16:12:28.701Z,79.80
2022-11-12T16:14:56.877Z,80.10
2022-11-12T16:17:25.143Z,80.20
2022-11-12T16:19:53.073Z,80.40
2022-11-12T16:22:22.402Z,80.40
2022-11-12T16:24:50.401Z,79.10
2022-11-12T16:27:20.437Z,77.90
2022-11-12T16:29:48.392Z,77.20
2022-11-12T16:32:16.543Z,77.10
2022-11-12T16:34:44.438Z,78.30
2022-11-12T16:37:13.460Z,79.40
2022-11-12T16:39:42.767Z,80.00
2022-11-12T16:42:11.211Z,81.10
2022-11-12T16:44:39.178Z,81.30
2022-11-12T16:47:07.502Z,81.10
2022-11-12T16:49:38.602Z,80.70
2022-11-12T16:52:07.347Z,80.70
2022-11-12T16:54:35.241Z,80.70
2022-11-12T16:57:04.701Z,80.80
2022-11-12T16:59:32.733Z,80.40
2022-11-12T17:02:00.702Z,80.40
2022-11-12T17:04:28.733Z,80.70
2022-11-12T17:06:56.757Z,81.20
2022-11-12T17:09:24.699Z,81.20
2022-11-12T17:11:52.574Z,81.50
2022-11-12T17:14:26.999Z,81.30
2022-11-12T17:16:56.223Z,81.20
2022-11-12T17:19:24.568Z,81.20
2022-11-12T17:21:52.562Z,81.20
2022-11-12T17:24:20.534Z,81.10
2022-11-12T17:26:48.480Z,81.10
2022-11-12T17:29:16.462Z,81.50
2022-11-12T17:31:48.479Z,81.10
2022-11-12T17:34:16.584Z,81.70
2022-11-12T17:36:44.507Z,81.80
2022-11-12T17:39:14.205Z,79.10
2022-11-12T17:41:42.172Z,77.20
2022-11-12T17:44:13.915Z,79.50
2022-11-12T17:46:41.797Z,80.80
2022-11-12T17:49:11.120Z,81.50
2022-11-12T17:51:39.034Z,77.80
2022-11-12T17:54:08.440Z,76.60
2022-11-12T17:56:37.212Z,76.40
2022-11-12T17:59:05.522Z,76.10
2022-11-12T18:01:34.825Z,79.70
2022-11-12T18:04:02.923Z,80.80
2022-11-12T18:06:33.720Z,81.50
2022-11-12T18:09:04.813Z,80.30
2022-11-12T18:11:41.320Z,78.70
2022-11-12T18:14:10.202Z,77.90
2022-11-12T18:16:38.096Z,78.30
2022-11-12T18:19:06.115Z,79.30
2022-11-12T18:21:35.344Z,80.30
2022-11-12T18:24:03.219Z,79.40
2022-11-12T18:26:31.119Z,80.50
2022-11-12T18:28:59.988Z,81.20
2022-11-12T18:31:29.083Z,81.50
2022-11-12T18:33:57.509Z,82.70
2022-11-12T18:36:27.088Z,82.60
2022-11-12T18:38:56.629Z,82.50
2022-11-12T18:41:26.904Z,83.10
2022-11-12T18:43:55.504Z,83.10
2022-11-12T18:46:23.790Z,83.20
2022-11-12T18:48:51.893Z,82.70
2022-11-12T18:51:20.670Z,81.90
2022-11-12T18:53:48.736Z,80.90
2022-11-12T18:56:19.334Z,77.90
2022-11-12T18:58:47.473Z,78.10
2022-11-12T19:01:17.257Z,76.10
2022-11-12T19:03:45.693Z,76.50
2022-11-12T19:06:14.245Z,76.60
2022-11-12T19:08:42.921Z,77.30
2022-11-12T19:11:12.491Z,77.50
2022-11-12T19:13:42.806Z,77.00
2022-11-12T19:16:12.663Z,78.10
2022-11-12T19:18:41.833Z,78.00
2022-11-12T19:21:11.631Z,78.80
2022-11-12T19:23:39.617Z,78.70
2022-11-12T19:26:09.753Z,79.70
2022-11-12T19:28:37.696Z,79.10
2022-11-12T19:31:07.984Z,78.00
2022-11-12T19:33:35.993Z,78.30
2022-11-12T19:36:07.029Z,78.10
2022-11-12T19:38:35.104Z,78.80
2022-11-12T19:41:06.466Z,79.00
2022-11-12T19:43:34.935Z,80.00
2022-11-12T19:46:03.063Z,80.40
2022-11-12T19:48:32.395Z,77.50
2022-11-12T19:51:02.318Z,76.80
2022-11-12T19:53:31.966Z,75.70
2022-11-12T19:56:01.346Z,75.90
2022-11-12T19:58:31.734Z,76.70
2022-11-12T20:01:04.909Z,77.60
2022-11-12T20:03:34.408Z,76.60
2022-11-12T20:06:03.184Z,76.60
2022-11-12T20:08:31.264Z,76.70
2022-11-12T20:10:59.902Z,76.90
2022-11-12T20:13:28.137Z,77.70
2022-11-12T20:15:56.137Z,77.00
2022-11-12T20:18:24.764Z,77.60
2022-11-12T20:20:56.762Z,78.50
2022-11-12T20:23:26.265Z,78.70
2022-11-12T20:25:55.221Z,78.70
2022-11-12T20:28:23.098Z,78.70
2022-11-12T20:30:51.004Z,79.50
2022-11-12T20:33:18.901Z,80.00
2022-11-12T20:35:46.820Z,80.60
2022-11-12T20:38:16.359Z,80.60
2022-11-12T20:40:44.238Z,80.10
2022-11-12T20:43:12.125Z,77.70
2022-11-12T20:45:40.016Z,76.30
2022-11-12T20:48:07.957Z,75.50
2022-11-12T20:50:36.895Z,75.40
2022-11-12T20:53:05.690Z,75.60
2022-11-12T20:55:35.003Z,76.70
2022-11-12T20:58:02.861Z,75.70
2022-11-12T21:00:30.962Z,75.30
2022-11-12T21:02:58.969Z,75.70
2022-11-12T21:05:26.867Z,76.00
2022-11-12T21:07:56.069Z,77.30
2022-11-12T21:10:23.979Z,77.60
2022-11-12T21:12:53.224Z,76.70
2022-11-12T21:15:21.452Z,76.70
2022-11-12T21:17:52.419Z,77.30
2022-11-12T21:20:20.372Z,77.70
2022-11-12T21:22:48.252Z,78.30
2022-11-12T21:25:16.266Z,78.90
2022-11-12T21:27:44.143Z,78.40
2022-11-12T21:30:13.607Z,74.90
2022-11-12T21:32:41.499Z,74.80
2022-11-12T21:35:09.864Z,74.60
2022-11-12T21:37:37.793Z,74.90
2022-11-12T21:40:06.669Z,74.50
2022-11-12T21:42:34.569Z,75.20
2022-11-12T21:45:02.552Z,74.70
2022-11-12T21:47:31.796Z,74.30
2022-11-12T21:49:59.765Z,76.50
2022-11-12T21:52:27.687Z,76.50
2022-11-12T21:54:55.630Z,76.60
2022-11-12T21:57:23.546Z,75.80
2022-11-12T21:59:51.462Z,76.30
2022-11-12T22:02:19.485Z,76.50
2022-11-12T22:04:48.805Z,77.30
2022-11-12T22:07:16.760Z,77.20
2022-11-12T22:09:44.722Z,78.10
2022-11-12T22:12:12.624Z,78.80
2022-11-12T22:14:40.564Z,79.30
2022-11-12T22:17:08.445Z,78.20
2022-11-12T22:19:36.435Z,75.70
2022-11-12T22:22:05.706Z,74.30
2022-11-12T22:24:33.627Z,74.50
2022-11-12T22:27:05.486Z,74.00
2022-11-12T22:29:33.679Z,75.20
2022-11-12T22:32:01.541Z,76.10
2022-11-12T22:34:29.481Z,76.70
2022-11-12T22:36:57.375Z,78.00
2022-11-12T22:39:27.188Z,78.00
2022-11-12T22:41:55.100Z,78.00
2022-11-12T22:44:22.995Z,78.00
2022-11-12T22:46:50.869Z,77.00
2022-11-12T22:49:18.958Z,75.70
2022-11-12T22:51:46.852Z,76.70
2022-11-12T22:54:15.861Z,77.80
2022-11-12T22:56:45.261Z,77.00
2022-11-12T22:59:13.424Z,74.90
2022-11-12T23:01:41.332Z,73.80
2022-11-12T23:04:09.685Z,74.80
2022-11-12T23:06:37.686Z,74.60
2022-11-12T23:09:06.055Z,74.30
2022-11-12T23:11:36.811Z,74.40
2022-11-12T23:14:06.071Z,74.30
2022-11-12T23:16:35.278Z,74.50
2022-11-12T23:19:03.246Z,74.60
2022-11-12T23:21:31.627Z,75.60
2022-11-12T23:24:00.290Z,74.40
2022-11-12T23:26:30.924Z,73.50
2022-11-12T23:28:58.900Z,73.50
2022-11-12T23:31:30.188Z,74.10
2022-11-12T23:34:00.121Z,74.50
2022-11-12T23:36:29.199Z,74.00
2022-11-12T23:38:57.825Z,74.40
2022-11-12T23:41:28.342Z,74.80
2022-11-12T23:43:57.654Z,75.10
2022-11-12T23:46:26.246Z,76.30
2022-11-12T23:48:55.525Z,76.90
2022-11-12T23:51:23.764Z,77.30
2022-11-12T23:53:51.708Z,77.30
2022-11-12T23:56:20.571Z,77.40
2022-11-12T23:58:48.570Z,77.50
